Terminal Aerodrome Forecast
Issued by NWS Shreveport, LA

Home | Current Version | Previous Version | Text Only | Print | Product List | Glossary On
Versions: 1 2 3 4 5 6 7 8 9 10 11 12 13 14 15 16 17 18 19 20 21 22 23
000
FTUS44 KSHV 232300 RRA
TAFTXK
TAF
KTXK 232341Z 2400/2424 21011KT P6SM SKC
     FM240500 28013KT P6SM BKN025
     FM241100 28011KT P6SM SCT030
     FM241500 28012KT P6SM SKC
     FM242300 26006KT P6SM SKC=

USA.gov is the U.S. government's official web portal to all federal, state and local government web resources and services.